Time;durP1;ratioP1;P1;durP2;ratioP2;P2;SDS_P1;SDS_P2;PMS_P1;PMS_P2;Temp;Humidity;BMP_temperature;BMP_pressure;BME280_temperature;BME280_humidity;BME280_pressure;Samples;Min_cycle;Max_cycle;Signal;HPM_P1;HPM_P2
2023/01/11 00:01:12;;;;;;;7.47;3.27;;;11.60;99.90;;;;;;5082990;28;20534;-66
2023/01/11 00:03:41;;;;;;;5.40;2.73;;;11.60;99.90;;;;;;5069044;28;20783;-66
2023/01/11 00:06:10;;;;;;;5.40;2.77;;;11.70;99.90;;;;;;5068768;28;20188;-66
2023/01/11 00:08:39;;;;;;;11.37;3.53;;;11.70;99.90;;;;;;5067779;28;21473;-66
2023/01/11 00:11:14;;;;;;;10.70;3.07;;;11.80;99.90;;;;;;5064063;28;20199;-66
2023/01/11 00:13:44;;;;;;;7.90;3.13;;;11.80;99.90;;;;;;5052901;28;20183;-66
2023/01/11 00:16:13;;;;;;;8.60;2.90;;;11.70;99.90;;;;;;5069062;28;20211;-66
2023/01/11 00:18:44;;;;;;;5.00;2.83;;;11.80;99.90;;;;;;5068575;28;20202;-65
2023/01/11 00:21:13;;;;;;;4.50;2.60;;;11.80;99.90;;;;;;5075300;28;20315;-65
2023/01/11 00:23:42;;;;;;;7.83;2.90;;;11.80;99.90;;;;;;5100933;27;20196;-66
2023/01/11 00:26:13;;;;;;;4.43;2.37;;;11.80;99.90;;;;;;5066297;28;20188;-66
2023/01/11 00:28:41;;;;;;;5.13;2.80;;;11.90;99.90;;;;;;5067018;28;20196;-66
2023/01/11 00:31:11;;;;;;;5.70;2.80;;;11.90;99.90;;;;;;5071965;28;20200;-66
2023/01/11 00:33:39;;;;;;;4.10;2.70;;;12.00;99.90;;;;;;5063702;28;20200;-66
2023/01/11 00:36:09;;;;;;;7.43;2.60;;;12.00;99.90;;;;;;5065312;28;20532;-66
2023/01/11 00:38:45;;;;;;;6.57;2.50;;;12.00;99.90;;;;;;5080278;28;20553;-65
2023/01/11 00:49:35;;;;;;;4.03;2.10;;;12.10;99.90;;;;;;5061170;28;20188;-66
2023/01/11 00:52:07;;;;;;;3.90;2.60;;;12.10;99.90;;;;;;5061292;28;20194;-66
2023/01/11 00:54:36;;;;;;;9.10;2.83;;;12.00;99.90;;;;;;5068462;28;20234;-65
2023/01/11 00:57:06;;;;;;;5.93;2.50;;;12.00;99.90;;;;;;5064617;28;20295;-65
2023/01/11 00:59:34;;;;;;;5.17;2.70;;;12.00;99.90;;;;;;5069813;28;20199;-66
2023/01/11 01:02:04;;;;;;;5.07;2.40;;;12.00;99.90;;;;;;5068763;28;20197;-65
2023/01/11 01:04:33;;;;;;;4.33;2.80;;;12.00;99.90;;;;;;5064619;28;20196;-65
2023/01/11 01:07:02;;;;;;;4.80;2.90;;;12.00;99.90;;;;;;5101931;28;20191;-65
2023/01/11 01:09:30;;;;;;;5.43;2.30;;;12.00;99.90;;;;;;5061328;28;20192;-66
2023/01/11 01:12:00;;;;;;;3.67;2.43;;;12.00;99.90;;;;;;5065313;28;20207;-65
2023/01/11 01:14:28;;;;;;;2.20;2.10;;;11.90;99.90;;;;;;5067380;28;20535;-67
2023/01/11 01:16:58;;;;;;;6.70;2.37;;;11.90;99.90;;;;;;5065520;28;20263;-66
2023/01/11 01:19:30;;;;;;;3.03;2.47;;;11.90;99.90;;;;;;5070896;28;20196;-66
2023/01/11 01:21:59;;;;;;;2.13;2.00;;;11.90;99.90;;;;;;5068435;28;20266;-66
2023/01/11 01:24:29;;;;;;;2.40;2.20;;;11.90;99.90;;;;;;5070585;28;20196;-66
2023/01/11 01:26:58;;;;;;;5.87;2.10;;;11.90;99.90;;;;;;5069264;28;20180;-65
2023/01/11 01:29:28;;;;;;;5.90;2.10;;;11.90;99.90;;;;;;5068954;28;20200;-66
2023/01/11 01:31:56;;;;;;;5.80;2.20;;;11.90;99.90;;;;;;5068975;28;20231;-66
2023/01/11 01:34:25;;;;;;;5.13;2.60;;;11.90;99.90;;;;;;5068385;28;20212;-66
2023/01/11 01:36:54;;;;;;;3.67;1.80;;;11.90;99.90;;;;;;5066975;28;20224;-66
2023/01/11 01:39:23;;;;;;;3.13;2.00;;;11.90;99.90;;;;;;5073829;28;20200;-66
2023/01/11 01:41:51;;;;;;;2.30;2.10;;;11.90;99.90;;;;;;5065061;28;20189;-66
2023/01/11 01:45:02;;;;;;;4.40;2.13;;;11.90;99.90;;;;;;5067844;28;20568;-66
2023/01/11 01:47:39;;;;;;;4.17;2.10;;;11.90;99.90;;;;;;5066855;28;20257;-65
2023/01/11 01:50:14;;;;;;;3.70;2.00;;;11.90;99.90;;;;;;5057182;28;20207;-66
2023/01/11 01:52:47;;;;;;;2.60;2.30;;;11.90;99.90;;;;;;5067401;28;20187;-66
2023/01/11 01:55:23;;;;;;;2.27;2.10;;;11.90;99.90;;;;;;5073139;28;20203;-66
2023/01/11 01:57:53;;;;;;;3.77;2.20;;;11.90;99.90;;;;;;5062915;28;20581;-66
2023/01/11 02:00:22;;;;;;;2.83;2.20;;;11.90;99.90;;;;;;5084751;28;20192;-66
2023/01/11 02:02:51;;;;;;;1.97;1.90;;;11.90;99.90;;;;;;5065946;28;20203;-65
2023/01/11 02:05:20;;;;;;;2.10;1.90;;;11.90;99.90;;;;;;5070666;28;20216;-66
2023/01/11 02:07:50;;;;;;;3.80;2.10;;;11.90;99.90;;;;;;5048974;28;20202;-65
2023/01/11 02:10:20;;;;;;;2.87;2.20;;;11.90;99.90;;;;;;5068358;28;20647;-67
2023/01/11 02:12:52;;;;;;;2.47;2.20;;;11.90;99.90;;;;;;5064265;28;20196;-66
2023/01/11 02:15:22;;;;;;;3.57;2.10;;;11.90;99.90;;;;;;5066523;28;20794;-66
2023/01/11 02:17:51;;;;;;;5.63;2.27;;;11.80;99.90;;;;;;5065493;28;20215;-67
2023/01/11 02:20:35;;;;;;;2.73;2.30;;;11.80;99.90;;;;;;5066202;28;20228;-66
2023/01/11 02:23:35;;;;;;;4.40;2.37;;;11.80;99.90;;;;;;5060610;28;20218;-67
2023/01/11 02:26:51;;;;;;;2.67;2.20;;;11.80;99.90;;;;;;5063292;28;20199;-67
2023/01/11 02:29:32;;;;;;;3.47;2.20;;;11.80;99.90;;;;;;5010697;28;20682;-66
2023/01/11 02:32:11;;;;;;;2.10;2.10;;;11.80;99.90;;;;;;5064686;28;20210;-66
2023/01/11 02:34:46;;;;;;;4.37;2.40;;;11.70;99.90;;;;;;5064897;28;20548;-67
2023/01/11 02:37:27;;;;;;;11.87;2.40;;;11.70;99.90;;;;;;5067543;28;20565;-68
2023/01/11 02:40:05;;;;;;;3.70;2.30;;;11.80;99.90;;;;;;5060863;28;20199;-67
2023/01/11 02:45:38;;;;;;;3.93;2.30;;;11.70;99.90;;;;;;5059306;28;20196;-67
2023/01/11 02:48:16;;;;;;;2.20;2.10;;;11.70;99.90;;;;;;5065096;28;20279;-67
2023/01/11 02:50:50;;;;;;;5.10;2.40;;;11.70;99.90;;;;;;5083700;28;20245;-67
2023/01/11 02:53:25;;;;;;;2.40;2.20;;;11.70;99.90;;;;;;5070461;28;20672;-67
2023/01/11 02:55:59;;;;;;;2.30;2.10;;;11.70;99.90;;;;;;5063514;28;20209;-67
2023/01/11 02:58:30;;;;;;;5.23;2.40;;;11.70;99.90;;;;;;5071794;28;20215;-67
2023/01/11 03:01:00;;;;;;;2.97;2.27;;;11.70;99.90;;;;;;5060493;28;20364;-67
2023/01/11 03:03:28;;;;;;;2.33;2.13;;;11.70;99.90;;;;;;5071302;28;20202;-67
2023/01/11 03:06:02;;;;;;;2.00;2.00;;;11.70;99.90;;;;;;5070249;28;20200;-67
2023/01/11 03:08:51;;;;;;;2.23;2.07;;;11.70;99.90;;;;;;5060124;28;20192;-68
2023/01/11 03:12:50;;;;;;;4.33;1.90;;;11.70;99.90;;;;;;5074822;28;20196;-68
2023/01/11 03:14:36;;;;;;;1.97;1.93;;;11.70;99.90;;;;;;5070726;28;20200;-68
2023/01/11 03:17:12;;;;;;;2.53;1.97;;;11.70;99.90;;;;;;5070537;28;20286;-67
2023/01/11 03:19:46;;;;;;;1.90;1.80;;;11.70;99.90;;;;;;5054542;28;20215;-67
2023/01/11 03:22:23;;;;;;;2.20;2.00;;;11.80;99.90;;;;;;5065211;28;20577;-67
2023/01/11 03:24:59;;;;;;;1.67;1.67;;;11.80;99.90;;;;;;5067878;28;20627;-67
2023/01/11 03:27:35;;;;;;;1.93;1.83;;;11.80;99.90;;;;;;5070819;28;20200;-67
2023/01/11 03:30:10;;;;;;;2.03;1.93;;;11.70;99.90;;;;;;5072221;28;20224;-68
2023/01/11 03:32:48;;;;;;;2.03;1.90;;;11.80;99.90;;;;;;5067307;28;20204;-67
2023/01/11 03:35:25;;;;;;;1.90;1.90;;;11.70;99.90;;;;;;5068624;28;20198;-67
2023/01/11 03:37:59;;;;;;;2.20;2.00;;;11.70;99.90;;;;;;5068072;28;20203;-67
2023/01/11 03:40:31;;;;;;;4.87;2.40;;;11.70;99.90;;;;;;5066203;28;20199;-67
2023/01/11 03:43:12;;;;;;;2.47;2.13;;;11.70;99.90;;;;;;5070421;28;20208;-67
2023/01/11 03:45:46;;;;;;;2.40;2.30;;;11.70;99.90;;;;;;5069267;28;20192;-67
2023/01/11 03:48:21;;;;;;;2.33;2.23;;;11.80;99.90;;;;;;5065366;28;20193;-67
2023/01/11 03:50:52;;;;;;;2.67;2.43;;;11.70;99.90;;;;;;5064012;28;20199;-67
2023/01/11 03:53:23;;;;;;;2.37;2.27;;;11.70;99.90;;;;;;5070231;28;20200;-68
2023/01/11 03:55:55;;;;;;;2.30;2.20;;;11.70;99.90;;;;;;5069155;28;20192;-67
2023/01/11 03:58:25;;;;;;;2.10;2.00;;;11.70;99.90;;;;;;5061498;28;20208;-68
2023/01/11 04:00:55;;;;;;;2.57;2.37;;;11.80;99.90;;;;;;5066251;28;20196;-67
2023/01/11 04:03:27;;;;;;;1.80;1.80;;;11.80;99.90;;;;;;5062277;28;20196;-67
2023/01/11 04:06:01;;;;;;;1.97;1.87;;;11.80;99.90;;;;;;5066618;28;20285;-67
2023/01/11 04:08:30;;;;;;;1.70;1.60;;;11.80;99.90;;;;;;5069908;28;20247;-67
2023/01/11 04:10:59;;;;;;;2.20;1.77;;;11.70;99.90;;;;;;5066446;28;20192;-67
2023/01/11 04:13:27;;;;;;;2.17;1.40;;;11.70;99.90;;;;;;5067122;28;20199;-67
2023/01/11 04:15:55;;;;;;;1.50;1.40;;;11.70;99.90;;;;;;5077346;28;20240;-67
2023/01/11 04:18:25;;;;;;;2.13;1.50;;;11.70;99.90;;;;;;5047484;28;20201;-67
2023/01/11 04:20:54;;;;;;;1.83;1.40;;;11.60;99.90;;;;;;5072409;28;20701;-67
2023/01/11 04:23:22;;;;;;;2.43;1.60;;;11.60;99.90;;;;;;5072151;28;20204;-68
2023/01/11 04:25:52;;;;;;;3.10;1.50;;;11.50;99.90;;;;;;5065007;28;20188;-67
2023/01/11 04:28:20;;;;;;;2.43;1.60;;;11.50;99.90;;;;;;5074260;28;20275;-67
2023/01/11 04:30:49;;;;;;;17.53;1.90;;;11.50;99.90;;;;;;5069097;28;20819;-67
2023/01/11 04:33:18;;;;;;;1.60;1.50;;;11.50;99.90;;;;;;5065850;28;20279;-67
2023/01/11 04:35:48;;;;;;;4.80;1.83;;;11.40;99.90;;;;;;5069086;28;20188;-67
2023/01/11 04:38:17;;;;;;;3.90;1.67;;;11.40;99.90;;;;;;5068345;28;20200;-67
2023/01/11 04:40:47;;;;;;;2.50;1.50;;;11.40;99.90;;;;;;5078240;28;20222;-66
2023/01/11 04:43:14;;;;;;;5.57;1.60;;;11.40;99.90;;;;;;5062972;28;20196;-66
2023/01/11 04:45:43;;;;;;;4.10;1.73;;;11.40;99.90;;;;;;5068601;28;20204;-67
2023/01/11 04:48:11;;;;;;;4.53;1.87;;;11.40;99.90;;;;;;5071847;28;20220;-67
2023/01/11 04:50:40;;;;;;;3.93;2.33;;;11.30;99.90;;;;;;5070947;28;20199;-66
2023/01/11 04:53:09;;;;;;;8.43;2.30;;;11.30;99.90;;;;;;5067690;28;20192;-66
2023/01/11 04:55:38;;;;;;;8.57;2.30;;;11.30;99.90;;;;;;5077040;28;20197;-66
2023/01/11 04:58:07;;;;;;;10.20;2.70;;;11.30;99.90;;;;;;5072485;28;20548;-66
2023/01/11 05:00:35;;;;;;;7.03;2.60;;;11.30;99.90;;;;;;5067628;28;20208;-67
2023/01/11 05:03:09;;;;;;;16.17;2.73;;;11.20;99.90;;;;;;5068461;28;20266;-66
2023/01/11 05:05:40;;;;;;;7.27;2.40;;;11.20;99.90;;;;;;5070555;28;20223;-67
2023/01/11 05:08:10;;;;;;;14.73;2.90;;;11.20;99.90;;;;;;5068593;28;20191;-66
2023/01/11 05:10:38;;;;;;;12.07;2.60;;;11.20;99.90;;;;;;5065421;28;20275;-67
2023/01/11 05:13:06;;;;;;;11.77;2.33;;;11.20;99.90;;;;;;5073611;28;20689;-66
2023/01/11 05:15:35;;;;;;;14.17;2.67;;;11.20;99.90;;;;;;5068173;28;20207;-66
2023/01/11 05:18:04;;;;;;;12.00;2.90;;;11.20;99.90;;;;;;5063785;28;20200;-66
2023/01/11 05:20:32;;;;;;;7.07;2.50;;;11.20;99.90;;;;;;5063449;28;20234;-67
2023/01/11 05:23:01;;;;;;;10.37;2.50;;;11.20;99.90;;;;;;5068133;28;20192;-67
2023/01/11 05:25:31;;;;;;;7.87;2.60;;;11.20;99.90;;;;;;5068303;28;20195;-66
2023/01/11 05:27:59;;;;;;;13.83;2.90;;;11.10;99.90;;;;;;5070009;28;21100;-66
2023/01/11 05:30:27;;;;;;;10.23;2.73;;;11.10;99.90;;;;;;5069592;28;20188;-65
2023/01/11 05:32:55;;;;;;;14.30;3.43;;;11.20;99.90;;;;;;5068900;28;20198;-66
2023/01/11 05:35:24;;;;;;;13.30;3.20;;;11.10;99.90;;;;;;5065442;28;20548;-66
2023/01/11 05:37:52;;;;;;;15.03;3.10;;;11.10;99.90;;;;;;5068280;28;20198;-66
2023/01/11 05:40:20;;;;;;;12.93;2.80;;;11.10;99.90;;;;;;5065677;28;20215;-66
2023/01/11 05:42:50;;;;;;;13.17;4.57;;;11.10;99.90;;;;;;5058540;28;20196;-66
2023/01/11 05:45:31;;;;;;;14.77;3.63;;;11.10;99.90;;;;;;5065997;28;20196;-66
2023/01/11 05:47:59;;;;;;;20.70;3.63;;;11.00;99.90;;;;;;5066253;28;20229;-66
2023/01/11 05:50:28;;;;;;;13.30;3.03;;;11.00;99.90;;;;;;5065597;28;20199;-66
2023/01/11 05:52:57;;;;;;;19.23;4.50;;;10.90;99.90;;;;;;5065911;28;20196;-67
2023/01/11 05:55:25;;;;;;;18.70;3.80;;;10.90;99.90;;;;;;5068109;28;20426;-66
2023/01/11 05:57:55;;;;;;;23.23;4.13;;;10.90;99.90;;;;;;5066010;28;20222;-66
2023/01/11 06:00:24;;;;;;;18.27;3.17;;;10.80;99.90;;;;;;5050498;28;20215;-66
2023/01/11 06:02:52;;;;;;;18.60;3.27;;;10.80;99.90;;;;;;5064948;28;20203;-66
2023/01/11 06:05:20;;;;;;;18.80;4.20;;;10.80;99.90;;;;;;5054981;28;20583;-66
2023/01/11 06:07:48;;;;;;;20.33;4.23;;;10.70;99.90;;;;;;5065690;28;20567;-66
2023/01/11 06:10:17;;;;;;;19.80;4.73;;;10.70;99.90;;;;;;5073959;28;20188;-66
2023/01/11 06:12:51;;;;;;;23.60;5.63;;;10.60;99.90;;;;;;5067050;28;20200;-66
2023/01/11 06:15:20;;;;;;;21.10;5.87;;;10.60;99.90;;;;;;5065364;28;20203;-66
2023/01/11 06:17:51;;;;;;;15.73;4.17;;;10.50;99.90;;;;;;5061201;28;20200;-66
2023/01/11 06:20:20;;;;;;;17.13;3.90;;;10.50;99.90;;;;;;5065358;28;20239;-66
2023/01/11 06:22:49;;;;;;;19.63;3.90;;;10.40;99.90;;;;;;5066286;28;20196;-65
2023/01/11 06:25:18;;;;;;;17.57;3.73;;;10.40;99.90;;;;;;5065957;28;20206;-66
2023/01/11 06:27:46;;;;;;;18.90;3.73;;;10.30;99.90;;;;;;5064494;28;20271;-66
2023/01/11 06:30:15;;;;;;;19.60;3.10;;;10.30;99.90;;;;;;5060869;28;20193;-66
2023/01/11 06:32:44;;;;;;;22.03;4.17;;;10.20;99.90;;;;;;5061516;28;20184;-66
2023/01/11 06:35:13;;;;;;;22.07;4.13;;;10.20;99.90;;;;;;5062162;28;20199;-66
2023/01/11 06:37:43;;;;;;;17.33;3.83;;;10.20;99.90;;;;;;5063136;28;20807;-67
2023/01/11 06:40:12;;;;;;;25.17;3.70;;;10.10;99.90;;;;;;5059732;28;20214;-66
2023/01/11 06:42:41;;;;;;;20.83;4.27;;;10.10;99.90;;;;;;5062360;28;20699;-66
2023/01/11 06:45:10;;;;;;;15.50;3.77;;;10.00;99.90;;;;;;5067446;28;20196;-66
2023/01/11 06:47:38;;;;;;;17.93;3.93;;;10.00;99.90;;;;;;5065733;28;20200;-65
2023/01/11 06:50:10;;;;;;;24.60;5.27;;;10.00;99.90;;;;;;5066267;28;20192;-66
2023/01/11 06:52:38;;;;;;;15.80;4.57;;;9.90;99.90;;;;;;5064312;28;20214;-66
2023/01/11 06:55:07;;;;;;;15.83;3.20;;;9.90;99.90;;;;;;5065313;28;20214;-65
2023/01/11 06:57:36;;;;;;;16.03;3.30;;;9.90;99.90;;;;;;5047948;28;20305;-66
2023/01/11 07:00:04;;;;;;;17.93;4.03;;;9.80;99.90;;;;;;5056417;28;20216;-66
2023/01/11 07:02:33;;;;;;;15.13;3.17;;;9.70;99.90;;;;;;5064027;28;20195;-65
2023/01/11 07:05:01;;;;;;;15.10;3.60;;;9.70;99.90;;;;;;5063945;28;20550;-65
2023/01/11 07:07:31;;;;;;;13.93;3.33;;;9.60;99.90;;;;;;5065301;28;20271;-66
2023/01/11 07:09:59;;;;;;;15.97;2.97;;;9.50;99.90;;;;;;5067623;28;20196;-65
2023/01/11 07:12:28;;;;;;;10.57;3.00;;;9.50;99.90;;;;;;5068908;28;20276;-65
2023/01/11 07:14:56;;;;;;;19.73;3.53;;;9.50;99.90;;;;;;5069067;28;20723;-66
2023/01/11 07:17:24;;;;;;;20.27;3.73;;;9.50;99.90;;;;;;5063169;28;20207;-66
2023/01/11 07:19:53;;;;;;;16.43;3.03;;;9.50;99.90;;;;;;5066705;28;20676;-66
2023/01/11 07:22:22;;;;;;;12.63;3.00;;;9.40;99.90;;;;;;5066196;28;20200;-66
2023/01/11 07:24:52;;;;;;;13.97;3.23;;;9.30;99.90;;;;;;5068954;28;20316;-65
2023/01/11 07:27:20;;;;;;;25.60;3.83;;;9.30;99.90;;;;;;5071212;28;20304;-65
2023/01/11 07:29:49;;;;;;;21.63;3.20;;;9.20;99.90;;;;;;5069230;28;20563;-66
2023/01/11 07:32:17;;;;;;;21.03;3.37;;;9.20;99.90;;;;;;5067342;28;20291;-65
2023/01/11 07:34:46;;;;;;;16.37;3.27;;;9.20;99.90;;;;;;5053438;28;20198;-66
2023/01/11 07:37:14;;;;;;;14.20;3.47;;;9.10;99.90;;;;;;5067571;28;20196;-66
2023/01/11 07:39:58;;;;;;;17.53;3.10;;;9.10;99.90;;;;;;5072115;28;20258;-65
2023/01/11 07:45:12;;;;;;;12.23;2.70;;;9.00;99.90;;;;;;5070726;28;20620;-66
2023/01/11 07:47:40;;;;;;;21.80;3.60;;;9.00;99.90;;;;;;5063695;28;20218;-66
2023/01/11 07:50:10;;;;;;;21.80;3.53;;;9.00;99.90;;;;;;5064838;28;20203;-66
2023/01/11 07:52:38;;;;;;;17.07;4.13;;;8.90;99.90;;;;;;5069264;28;20756;-66
2023/01/11 07:55:09;;;;;;;17.47;3.73;;;8.90;99.90;;;;;;5070528;28;20203;-66
2023/01/11 07:57:37;;;;;;;19.53;4.13;;;8.90;99.90;;;;;;5066566;28;20230;-65
2023/01/11 08:00:06;;;;;;;20.90;3.60;;;8.90;99.90;;;;;;5071504;28;20204;-66
2023/01/11 08:02:35;;;;;;;16.57;3.57;;;8.90;99.90;;;;;;5060715;28;20677;-65
2023/01/11 08:05:03;;;;;;;12.50;3.63;;;8.90;99.90;;;;;;5059847;28;20246;-66
2023/01/11 08:07:32;;;;;;;26.67;3.60;;;8.90;99.90;;;;;;5070295;28;20275;-66
2023/01/11 08:10:02;;;;;;;20.57;3.90;;;8.90;99.90;;;;;;5065534;28;20325;-65
2023/01/11 08:15:18;;;;;;;16.13;3.53;;;8.90;99.90;;;;;;5070532;28;20204;-65
2023/01/11 08:17:49;;;;;;;22.73;4.20;;;8.90;99.90;;;;;;5070552;28;20191;-65
2023/01/11 08:20:19;;;;;;;13.87;3.33;;;8.90;99.90;;;;;;5064726;28;20236;-65
2023/01/11 08:22:48;;;;;;;25.37;3.50;;;8.90;99.90;;;;;;5068312;28;20200;-66
2023/01/11 08:25:16;;;;;;;20.70;3.50;;;8.90;99.90;;;;;;5071572;28;20791;-66
2023/01/11 08:27:46;;;;;;;18.50;3.80;;;8.80;99.90;;;;;;5067272;28;20216;-65
2023/01/11 08:30:15;;;;;;;18.77;3.40;;;8.80;99.90;;;;;;5065668;28;20207;-66
2023/01/11 08:32:43;;;;;;;22.27;3.63;;;8.80;99.90;;;;;;5070483;28;20198;-65
2023/01/11 08:35:12;;;;;;;17.93;3.70;;;8.80;99.90;;;;;;5068284;28;20279;-65
2023/01/11 08:37:41;;;;;;;19.60;3.27;;;8.80;99.90;;;;;;5071848;28;20617;-65
2023/01/11 08:40:10;;;;;;;19.37;3.30;;;8.80;99.90;;;;;;5071014;28;20203;-66
2023/01/11 08:42:39;;;;;;;16.30;3.70;;;8.80;99.90;;;;;;5065748;28;20206;-65
2023/01/11 08:45:09;;;;;;;20.13;3.87;;;8.80;99.90;;;;;;5064552;28;20234;-65
2023/01/11 08:47:37;;;;;;;22.40;4.43;;;8.80;99.90;;;;;;5069735;28;20196;-65
2023/01/11 08:50:07;;;;;;;16.30;3.47;;;8.70;99.90;;;;;;5060168;28;20549;-66
2023/01/11 08:52:35;;;;;;;25.20;4.20;;;8.70;99.90;;;;;;5096611;27;20200;-65
2023/01/11 08:55:06;;;;;;;17.93;3.50;;;8.60;99.90;;;;;;5065709;28;20188;-65
2023/01/11 08:57:35;;;;;;;23.60;4.13;;;8.60;99.90;;;;;;5062969;28;20208;-66
2023/01/11 09:00:05;;;;;;;25.43;4.47;;;8.60;99.90;;;;;;5069881;28;20188;-65
2023/01/11 09:02:35;;;;;;;26.67;4.27;;;8.70;99.90;;;;;;5061280;28;20220;-65
2023/01/11 09:05:05;;;;;;;21.10;4.80;;;8.70;99.90;;;;;;5061178;28;20200;-66
2023/01/11 09:07:33;;;;;;;22.27;3.80;;;8.70;99.90;;;;;;5062951;28;20189;-66
2023/01/11 09:10:01;;;;;;;28.37;4.90;;;8.80;99.90;;;;;;5071049;28;20193;-65
2023/01/11 09:12:32;;;;;;;22.47;4.10;;;8.80;99.90;;;;;;5065927;28;20278;-66
2023/01/11 09:15:00;;;;;;;22.87;4.50;;;8.90;99.90;;;;;;5049425;28;20188;-65
2023/01/11 09:17:28;;;;;;;22.60;4.17;;;9.00;99.90;;;;;;5061113;28;20197;-65
2023/01/11 09:19:58;;;;;;;17.60;3.47;;;9.10;99.90;;;;;;5069747;28;20248;-65
2023/01/11 09:22:27;;;;;;;26.57;4.43;;;9.10;99.90;;;;;;5070809;28;20222;-66
2023/01/11 09:24:57;;;;;;;27.40;4.07;;;9.20;99.90;;;;;;5070646;28;20228;-65
2023/01/11 09:27:26;;;;;;;22.97;4.17;;;9.40;99.90;;;;;;5064600;28;20539;-65
2023/01/11 09:29:54;;;;;;;17.20;4.17;;;9.50;99.90;;;;;;5069585;28;20196;-66
2023/01/11 09:32:23;;;;;;;26.23;4.13;;;9.50;99.90;;;;;;5068564;28;20192;-65
2023/01/11 09:34:56;;;;;;;17.70;3.70;;;9.60;99.90;;;;;;5069760;28;20203;-65
2023/01/11 09:37:26;;;;;;;23.80;3.73;;;9.70;99.90;;;;;;5065148;28;20705;-66
2023/01/11 09:39:56;;;;;;;22.47;4.20;;;9.80;99.90;;;;;;5065060;28;20200;-66
2023/01/11 09:42:36;;;;;;;19.57;3.93;;;9.90;99.90;;;;;;5067505;28;20295;-66
2023/01/11 09:45:12;;;;;;;28.43;4.30;;;10.00;99.90;;;;;;5064660;28;20222;-65
2023/01/11 09:47:45;;;;;;;18.33;3.47;;;10.20;99.90;;;;;;5068546;28;20654;-65
2023/01/11 09:50:18;;;;;;;23.97;4.20;;;10.30;99.90;;;;;;5070198;28;20197;-66
2023/01/11 09:52:52;;;;;;;21.77;4.17;;;10.40;99.90;;;;;;5063245;28;20254;-66
2023/01/11 09:55:28;;;;;;;25.20;4.40;;;10.50;99.90;;;;;;5065631;28;20200;-65
2023/01/11 09:58:10;;;;;;;20.03;3.70;;;10.60;99.90;;;;;;5071680;28;20695;-66
2023/01/11 10:00:51;;;;;;;16.80;4.13;;;10.80;99.90;;;;;;5068615;28;20203;-66
2023/01/11 10:03:34;;;;;;;18.97;3.53;;;11.00;99.90;;;;;;5064666;28;20283;-65
2023/01/11 10:06:13;;;;;;;20.80;3.60;;;11.30;99.90;;;;;;5062363;28;20192;-66
2023/01/11 10:09:16;;;;;;;24.33;4.57;;;11.60;99.90;;;;;;5064014;28;20196;-66
2023/01/11 10:12:16;;;;;;;24.93;4.07;;;11.80;99.90;;;;;;5066154;28;20246;-65
2023/01/11 10:15:16;;;;;;;23.27;3.50;;;12.00;99.90;;;;;;5064664;28;20205;-65
2023/01/11 10:18:26;;;;;;;22.33;3.57;;;12.20;99.90;;;;;;5062652;28;21884;-66
2023/01/11 10:21:22;;;;;;;21.97;3.83;;;12.40;99.90;;;;;;5061538;28;20220;-66
2023/01/11 10:23:56;;;;;;;26.77;4.00;;;12.40;99.90;;;;;;5064084;28;20200;-65
2023/01/11 10:26:31;;;;;;;17.33;3.60;;;12.50;99.90;;;;;;5062280;28;20200;-65
2023/01/11 10:29:20;;;;;;;23.07;4.10;;;12.40;99.90;;;;;;5062758;28;20197;-65
2023/01/11 10:32:09;;;;;;;17.97;3.83;;;12.20;99.90;;;;;;5064544;28;20218;-65
2023/01/11 10:34:59;;;;;;;26.90;4.33;;;12.20;99.90;;;;;;5065405;28;20190;-65
2023/01/11 10:37:53;;;;;;;21.50;3.97;;;12.20;99.90;;;;;;5063967;28;20245;-66
2023/01/11 10:40:38;;;;;;;23.80;4.10;;;12.20;99.90;;;;;;5059042;28;20696;-65
2023/01/11 10:43:15;;;;;;;18.53;3.70;;;12.40;99.90;;;;;;5064933;28;20226;-65
2023/01/11 10:45:50;;;;;;;21.50;3.80;;;12.50;99.90;;;;;;5064967;28;20286;-65
2023/01/11 10:48:23;;;;;;;19.13;4.63;;;12.40;99.90;;;;;;5067822;28;20282;-65
2023/01/11 10:51:00;;;;;;;16.73;3.90;;;12.40;99.90;;;;;;5062052;28;20188;-65
2023/01/11 10:53:36;;;;;;;24.80;4.43;;;12.50;99.90;;;;;;5066362;28;20233;-65
2023/01/11 10:56:18;;;;;;;18.83;3.40;;;12.60;99.90;;;;;;5064453;28;20196;-65
2023/01/11 10:59:07;;;;;;;23.10;3.73;;;12.70;99.90;;;;;;5060881;28;20752;-65
2023/01/11 11:01:54;;;;;;;23.03;4.13;;;12.80;99.90;;;;;;5067783;28;20196;-65
2023/01/11 11:04:56;;;;;;;24.20;4.00;;;12.90;99.90;;;;;;5065018;28;20321;-65
2023/01/11 11:07:31;;;;;;;26.10;4.03;;;13.00;99.90;;;;;;5069151;28;20639;-66
2023/01/11 11:10:10;;;;;;;22.50;4.50;;;12.80;99.90;;;;;;5059488;28;20287;-65
2023/01/11 11:12:47;;;;;;;21.27;4.07;;;12.60;99.90;;;;;;5064996;28;20185;-65
2023/01/11 11:15:24;;;;;;;18.00;3.40;;;12.50;99.90;;;;;;5083100;28;20278;-66
2023/01/11 11:17:54;;;;;;;20.30;3.57;;;12.40;99.90;;;;;;5103707;28;20206;-65
2023/01/11 11:20:25;;;;;;;21.57;4.00;;;12.30;99.90;;;;;;5066836;28;20224;-65
2023/01/11 11:22:55;;;;;;;18.63;3.37;;;12.30;99.90;;;;;;5071875;28;20695;-65
2023/01/11 11:25:28;;;;;;;22.20;4.23;;;12.20;99.90;;;;;;5071194;28;20196;-65
2023/01/11 11:28:01;;;;;;;24.40;5.03;;;12.10;99.90;;;;;;5073295;28;20198;-65
2023/01/11 11:30:35;;;;;;;17.80;3.90;;;12.00;99.90;;;;;;5060945;28;20199;-65
2023/01/11 11:33:07;;;;;;;26.33;4.60;;;11.90;99.90;;;;;;5062749;28;20198;-66
2023/01/11 11:35:38;;;;;;;18.00;3.40;;;11.90;99.90;;;;;;5071567;28;20196;-65
2023/01/11 11:38:16;;;;;;;16.10;3.90;;;11.90;99.90;;;;;;5068905;28;20193;-66
2023/01/11 11:40:44;;;;;;;24.33;4.67;;;12.00;99.90;;;;;;5101359;28;20283;-65
2023/01/11 11:43:19;;;;;;;22.00;4.27;;;12.10;99.90;;;;;;5067032;28;20226;-65
2023/01/11 11:45:56;;;;;;;18.67;4.00;;;12.20;99.90;;;;;;5068915;28;20192;-65
2023/01/11 11:48:26;;;;;;;21.67;4.20;;;12.30;99.90;;;;;;5066238;28;20189;-65
2023/01/11 11:50:57;;;;;;;16.53;4.17;;;12.20;99.90;;;;;;5065684;28;20205;-66
2023/01/11 11:53:34;;;;;;;19.87;4.10;;;12.10;99.90;;;;;;5069388;28;20558;-65
2023/01/11 11:56:17;;;;;;;24.87;4.13;;;12.10;99.90;;;;;;5082837;28;20192;-66
2023/01/11 11:58:46;;;;;;;22.87;4.33;;;12.20;99.90;;;;;;5064732;28;20247;-66
2023/01/11 12:01:26;;;;;;;21.73;4.30;;;12.30;99.90;;;;;;5101638;28;20192;-65
2023/01/11 12:03:57;;;;;;;28.10;4.40;;;12.20;99.90;;;;;;5066955;28;20558;-65
2023/01/11 12:06:28;;;;;;;28.33;4.20;;;12.20;99.90;;;;;;5099140;28;20541;-66
2023/01/11 12:09:00;;;;;;;21.60;4.67;;;12.20;99.90;;;;;;5067562;28;20658;-65
2023/01/11 12:11:33;;;;;;;25.57;4.93;;;12.20;99.90;;;;;;5068182;28;20516;-65
2023/01/11 12:14:15;;;;;;;23.03;4.37;;;12.30;99.90;;;;;;5065478;28;20284;-65
2023/01/11 12:16:45;;;;;;;20.20;4.27;;;12.40;99.90;;;;;;5082843;28;20204;-66
2023/01/11 12:19:29;;;;;;;21.13;4.50;;;12.40;99.90;;;;;;5064630;28;20619;-66
2023/01/11 12:22:11;;;;;;;20.33;4.03;;;12.30;99.90;;;;;;5068322;28;20694;-65
2023/01/11 12:24:40;;;;;;;22.23;3.97;;;12.20;99.90;;;;;;5068707;28;20192;-65
2023/01/11 12:27:20;;;;;;;21.23;4.03;;;12.10;99.90;;;;;;5066858;28;20234;-66
2023/01/11 12:30:00;;;;;;;24.10;4.30;;;12.00;99.90;;;;;;5067612;28;20195;-65
2023/01/11 12:32:53;;;;;;;23.40;4.63;;;12.00;99.90;;;;;;5085433;28;20241;-65
2023/01/11 12:35:37;;;;;;;21.07;3.80;;;12.10;99.90;;;;;;5071195;28;20279;-66
2023/01/11 12:38:39;;;;;;;21.23;4.07;;;12.20;99.90;;;;;;5068353;28;20188;-65
2023/01/11 12:41:46;;;;;;;20.73;3.60;;;12.20;99.90;;;;;;5007820;28;20643;-66
2023/01/11 12:44:23;;;;;;;21.37;4.37;;;12.30;99.90;;;;;;5056834;28;20281;-66
2023/01/11 12:47:07;;;;;;;21.13;4.10;;;12.30;99.90;;;;;;5059522;28;20310;-66
2023/01/11 12:49:45;;;;;;;17.63;4.33;;;12.50;99.90;;;;;;5067806;28;20210;-66
2023/01/11 12:52:43;;;;;;;17.53;3.27;;;12.70;99.90;;;;;;5066818;28;20971;-65
2023/01/11 12:55:26;;;;;;;17.77;4.00;;;12.70;99.90;;;;;;5067168;28;20242;-65
2023/01/11 12:58:04;;;;;;;22.80;4.10;;;12.60;99.90;;;;;;5065232;28;20287;-65
2023/01/11 13:00:50;;;;;;;18.07;3.43;;;12.50;99.90;;;;;;5080450;28;20565;-65
2023/01/11 13:04:01;;;;;;;18.47;3.30;;;12.60;99.90;;;;;;5062381;28;21031;-65
2023/01/11 13:06:36;;;;;;;22.87;3.80;;;12.80;99.90;;;;;;5056535;28;21832;-65
2023/01/11 13:09:09;;;;;;;16.70;4.10;;;12.80;99.90;;;;;;5099468;28;20187;-65
2023/01/11 13:11:52;;;;;;;15.57;3.67;;;12.70;99.90;;;;;;5071508;28;20201;-66
2023/01/11 13:14:40;;;;;;;18.17;3.33;;;12.60;99.90;;;;;;5064908;28;20192;-66
2023/01/11 13:17:22;;;;;;;10.73;3.20;;;12.50;99.90;;;;;;5065289;28;20192;-65
2023/01/11 13:20:02;;;;;;;11.70;3.47;;;12.40;99.90;;;;;;5061434;28;20192;-65
2023/01/11 13:22:36;;;;;;;16.63;3.10;;;12.40;99.90;;;;;;5064861;28;20271;-66
2023/01/11 13:25:15;;;;;;;16.97;3.13;;;12.30;99.90;;;;;;5064587;28;20206;-66
2023/01/11 13:27:44;;;;;;;11.00;2.80;;;12.30;99.90;;;;;;5073406;28;20194;-65
2023/01/11 13:30:16;;;;;;;9.07;2.60;;;12.20;99.90;;;;;;5059348;28;20288;-66
2023/01/11 13:32:51;;;;;;;8.93;2.50;;;12.20;99.90;;;;;;5055667;28;20193;-65